createdAt,value
2019-03-20T07:32:49.957Z,8.30
2019-03-20T07:40:50.391Z,8.40
2019-03-20T07:43:27.042Z,8.40
2019-03-20T07:45:57.556Z,8.40
2019-03-20T07:48:32.055Z,8.40
2019-03-20T07:51:06.252Z,8.40
2019-03-20T07:53:41.389Z,8.40
2019-03-20T07:56:13.181Z,8.50
2019-03-20T07:58:45.677Z,8.60
2019-03-20T08:01:29.509Z,8.70
2019-03-20T08:04:21.917Z,8.70
2019-03-20T08:06:55.956Z,8.80
2019-03-20T08:09:37.022Z,8.80
2019-03-20T08:12:35.384Z,8.80
2019-03-20T08:15:15.257Z,8.90
2019-03-20T08:17:51.468Z,8.90
2019-03-20T08:20:29.902Z,9.00
2019-03-20T08:23:03.170Z,9.00
2019-03-20T08:25:34.110Z,9.00
2019-03-20T08:28:11.924Z,9.00
2019-03-20T08:42:52.441Z,9.20
2019-03-20T08:45:32.546Z,9.30
2019-03-20T08:48:28.179Z,9.40
2019-03-20T09:28:07.688Z,10.30
2019-03-20T09:30:37.613Z,10.50
2019-03-20T09:33:07.484Z,10.50
2019-03-20T09:35:37.332Z,10.70
2019-03-20T09:38:08.093Z,10.80
2019-03-20T09:40:38.070Z,11.00
2019-03-20T09:43:17.548Z,10.90
2019-03-20T09:45:43.213Z,11.00
2019-03-20T09:48:50.347Z,10.90
2019-03-20T09:54:07.669Z,11.00
2019-03-20T09:56:40.395Z,11.00
2019-03-20T09:59:13.749Z,11.10
2019-03-20T10:01:44.802Z,11.00
2019-03-20T10:04:19.364Z,11.00
2019-03-20T10:07:04.055Z,11.20
2019-03-20T10:09:38.417Z,11.20
2019-03-20T10:12:08.780Z,11.40
2019-03-20T10:14:38.698Z,11.40
2019-03-20T10:17:09.495Z,11.40
2019-03-20T10:19:39.393Z,11.50
2019-03-20T10:22:10.054Z,11.50
2019-03-20T10:24:47.197Z,11.60
2019-03-20T10:27:17.048Z,11.60
2019-03-20T10:29:48.736Z,11.60
2019-03-20T10:32:24.610Z,11.50
2019-03-20T10:34:54.997Z,11.50
2019-03-20T10:37:31.402Z,11.60
2019-03-20T10:40:10.123Z,11.60
2019-03-20T10:42:41.147Z,11.60
2019-03-20T10:45:14.917Z,11.60
2019-03-20T10:47:45.752Z,11.70
2019-03-20T10:50:25.533Z,11.80
2019-03-20T10:53:03.309Z,11.80
2019-03-20T10:55:28.659Z,11.80
2019-03-20T10:58:00.814Z,11.80
2019-03-20T11:00:31.760Z,11.80
2019-03-20T11:03:01.686Z,11.80
2019-03-20T11:05:34.859Z,11.80
2019-03-20T11:08:18.153Z,11.80
2019-03-20T11:10:52.657Z,11.90
2019-03-20T11:16:27.667Z,11.80
2019-03-20T11:19:00.455Z,12.00
2019-03-20T11:21:33.760Z,12.10
2019-03-20T11:24:09.456Z,12.20
2019-03-20T11:26:42.088Z,12.30
2019-03-20T11:29:21.326Z,12.40
2019-03-20T11:32:01.707Z,12.50
2019-03-20T11:59:10.240Z,13.00
